sensor_id;sensor_type;location;lat;lon;timestamp;temperature;humidity
43999;DHT22;51319;52.162;5.302;2022-08-11T00:01:25;20.20;75.90
43999;DHT22;51319;52.162;5.302;2022-08-11T00:04:02;20.20;76.00
43999;DHT22;51319;52.162;5.302;2022-08-11T00:06:32;20.10;76.30
43999;DHT22;51319;52.162;5.302;2022-08-11T00:09:02;20.10;76.30
43999;DHT22;51319;52.162;5.302;2022-08-11T00:11:42;20.10;76.90
43999;DHT22;51319;52.162;5.302;2022-08-11T00:14:29;20.00;76.50
43999;DHT22;51319;52.162;5.302;2022-08-11T00:17:10;20.00;76.80
43999;DHT22;51319;52.162;5.302;2022-08-11T00:19:45;19.90;76.70
43999;DHT22;51319;52.162;5.302;2022-08-11T00:22:33;19.90;76.80
43999;DHT22;51319;52.162;5.302;2022-08-11T00:25:07;19.90;76.80
43999;DHT22;51319;52.162;5.302;2022-08-11T00:27:36;19.80;77.10
43999;DHT22;51319;52.162;5.302;2022-08-11T00:30:04;19.80;77.30
43999;DHT22;51319;52.162;5.302;2022-08-11T00:32:31;19.80;77.40
43999;DHT22;51319;52.162;5.302;2022-08-11T00:34:59;19.70;77.50
43999;DHT22;51319;52.162;5.302;2022-08-11T00:37:48;19.70;77.60
43999;DHT22;51319;52.162;5.302;2022-08-11T00:40:28;19.60;77.60
43999;DHT22;51319;52.162;5.302;2022-08-11T01:07:13;19.30;78.70
43999;DHT22;51319;52.162;5.302;2022-08-11T01:13:41;19.20;78.80
43999;DHT22;51319;52.162;5.302;2022-08-11T01:24:53;19.10;79.90
43999;DHT22;51319;52.162;5.302;2022-08-11T01:28:19;19.00;80.00
43999;DHT22;51319;52.162;5.302;2022-08-11T01:31:29;19.00;80.10
43999;DHT22;51319;52.162;5.302;2022-08-11T01:36:33;18.90;80.00
43999;DHT22;51319;52.162;5.302;2022-08-11T01:45:33;18.80;80.70
43999;DHT22;51319;52.162;5.302;2022-08-11T01:51:04;18.70;80.90
43999;DHT22;51319;52.162;5.302;2022-08-11T01:59:13;18.60;81.60
43999;DHT22;51319;52.162;5.302;2022-08-11T02:06:54;18.50;82.10
43999;DHT22;51319;52.162;5.302;2022-08-11T02:09:32;18.50;82.10
43999;DHT22;51319;52.162;5.302;2022-08-11T02:12:31;18.50;81.90
43999;DHT22;51319;52.162;5.302;2022-08-11T02:18:03;18.40;82.20
43999;DHT22;51319;52.162;5.302;2022-08-11T02:20:44;18.40;82.40
43999;DHT22;51319;52.162;5.302;2022-08-11T02:23:53;18.30;82.60
43999;DHT22;51319;52.162;5.302;2022-08-11T02:26:45;18.30;82.60
43999;DHT22;51319;52.162;5.302;2022-08-11T02:29:28;18.30;82.50
43999;DHT22;51319;52.162;5.302;2022-08-11T02:42:41;18.20;83.10
43999;DHT22;51319;52.162;5.302;2022-08-11T02:45:46;18.20;83.30
43999;DHT22;51319;52.162;5.302;2022-08-11T02:51:29;18.20;83.40
43999;DHT22;51319;52.162;5.302;2022-08-11T02:54:09;18.20;83.30
43999;DHT22;51319;52.162;5.302;2022-08-11T02:56:57;18.10;83.40
43999;DHT22;51319;52.162;5.302;2022-08-11T03:04:57;18.00;83.80
43999;DHT22;51319;52.162;5.302;2022-08-11T03:13:35;17.90;84.20
43999;DHT22;51319;52.162;5.302;2022-08-11T03:16:40;17.80;84.10
43999;DHT22;51319;52.162;5.302;2022-08-11T03:19:23;17.80;84.50
43999;DHT22;51319;52.162;5.302;2022-08-11T03:22:16;17.80;84.60
43999;DHT22;51319;52.162;5.302;2022-08-11T03:25:10;17.80;84.80
43999;DHT22;51319;52.162;5.302;2022-08-11T03:27:52;17.70;85.00
43999;DHT22;51319;52.162;5.302;2022-08-11T03:30:34;17.70;85.00
43999;DHT22;51319;52.162;5.302;2022-08-11T03:39:00;17.60;85.50
43999;DHT22;51319;52.162;5.302;2022-08-11T03:41:37;17.50;85.50
43999;DHT22;51319;52.162;5.302;2022-08-11T03:50:28;17.50;86.00
43999;DHT22;51319;52.162;5.302;2022-08-11T03:58:56;17.30;86.20
43999;DHT22;51319;52.162;5.302;2022-08-11T04:30:09;16.90;87.90
43999;DHT22;51319;52.162;5.302;2022-08-11T04:45:09;16.90;88.30
43999;DHT22;51319;52.162;5.302;2022-08-11T04:57:40;17.00;88.10
43999;DHT22;51319;52.162;5.302;2022-08-11T05:13:11;17.20;87.70
43999;DHT22;51319;52.162;5.302;2022-08-11T05:16:09;17.20;87.60
43999;DHT22;51319;52.162;5.302;2022-08-11T05:18:56;17.30;87.30
43999;DHT22;51319;52.162;5.302;2022-08-11T05:21:45;17.30;87.20
43999;DHT22;51319;52.162;5.302;2022-08-11T05:24:40;17.40;87.20
43999;DHT22;51319;52.162;5.302;2022-08-11T05:27:32;17.40;86.80
43999;DHT22;51319;52.162;5.302;2022-08-11T05:30:25;17.60;86.70
43999;DHT22;51319;52.162;5.302;2022-08-11T05:33:18;18.10;86.00
43999;DHT22;51319;52.162;5.302;2022-08-11T05:38:50;18.60;83.60
43999;DHT22;51319;52.162;5.302;2022-08-11T05:41:38;18.70;82.80
43999;DHT22;51319;52.162;5.302;2022-08-11T05:44:23;18.80;82.20
43999;DHT22;51319;52.162;5.302;2022-08-11T05:47:24;18.80;81.60
43999;DHT22;51319;52.162;5.302;2022-08-11T05:50:11;18.80;81.30
43999;DHT22;51319;52.162;5.302;2022-08-11T05:53:00;18.90;81.20
43999;DHT22;51319;52.162;5.302;2022-08-11T05:55:45;19.40;80.50
43999;DHT22;51319;52.162;5.302;2022-08-11T05:58:36;20.00;78.60
43999;DHT22;51319;52.162;5.302;2022-08-11T06:01:13;20.50;76.50
43999;DHT22;51319;52.162;5.302;2022-08-11T06:03:43;21.00;75.60
43999;DHT22;51319;52.162;5.302;2022-08-11T06:06:29;21.40;73.60
43999;DHT22;51319;52.162;5.302;2022-08-11T06:08:56;21.80;72.10
43999;DHT22;51319;52.162;5.302;2022-08-11T06:11:24;22.10;70.80
43999;DHT22;51319;52.162;5.302;2022-08-11T06:14:11;22.50;69.50
43999;DHT22;51319;52.162;5.302;2022-08-11T06:16:40;22.90;68.20
43999;DHT22;51319;52.162;5.302;2022-08-11T06:19:07;23.20;66.70
43999;DHT22;51319;52.162;5.302;2022-08-11T06:21:34;23.50;65.60
43999;DHT22;51319;52.162;5.302;2022-08-11T06:24:10;23.80;64.70
43999;DHT22;51319;52.162;5.302;2022-08-11T06:26:37;24.10;63.90
43999;DHT22;51319;52.162;5.302;2022-08-11T06:29:26;24.40;62.80
43999;DHT22;51319;52.162;5.302;2022-08-11T06:32:12;24.80;61.80
43999;DHT22;51319;52.162;5.302;2022-08-11T06:35:04;25.10;60.70
43999;DHT22;51319;52.162;5.302;2022-08-11T06:41:16;26.00;58.70
43999;DHT22;51319;52.162;5.302;2022-08-11T06:46:40;26.60;56.40
43999;DHT22;51319;52.162;5.302;2022-08-11T06:49:11;27.00;56.70
43999;DHT22;51319;52.162;5.302;2022-08-11T06:51:59;27.30;54.90
43999;DHT22;51319;52.162;5.302;2022-08-11T06:54:33;27.60;54.20
43999;DHT22;51319;52.162;5.302;2022-08-11T06:57:00;27.90;53.20
43999;DHT22;51319;52.162;5.302;2022-08-11T06:59:57;28.20;52.60
43999;DHT22;51319;52.162;5.302;2022-08-11T07:02:51;28.60;51.80
43999;DHT22;51319;52.162;5.302;2022-08-11T07:13:58;30.10;48.40
43999;DHT22;51319;52.162;5.302;2022-08-11T07:16:47;30.50;46.70
43999;DHT22;51319;52.162;5.302;2022-08-11T07:19:19;30.90;45.80
43999;DHT22;51319;52.162;5.302;2022-08-11T07:22:06;31.20;44.80
43999;DHT22;51319;52.162;5.302;2022-08-11T07:25:06;31.60;44.80
43999;DHT22;51319;52.162;5.302;2022-08-11T07:28:01;31.90;43.60
43999;DHT22;51319;52.162;5.302;2022-08-11T07:30:47;32.30;42.90
43999;DHT22;51319;52.162;5.302;2022-08-11T07:33:25;32.80;42.00
43999;DHT22;51319;52.162;5.302;2022-08-11T07:36:14;33.20;41.90
43999;DHT22;51319;52.162;5.302;2022-08-11T07:38:45;33.50;41.00
43999;DHT22;51319;52.162;5.302;2022-08-11T07:41:21;33.80;39.70
43999;DHT22;51319;52.162;5.302;2022-08-11T07:43:52;34.20;38.90
43999;DHT22;51319;52.162;5.302;2022-08-11T07:46:20;34.40;39.00
43999;DHT22;51319;52.162;5.302;2022-08-11T07:49:07;34.60;38.30
43999;DHT22;51319;52.162;5.302;2022-08-11T07:51:53;34.90;37.30
43999;DHT22;51319;52.162;5.302;2022-08-11T07:54:39;35.20;36.60
43999;DHT22;51319;52.162;5.302;2022-08-11T07:57:10;35.60;36.80
43999;DHT22;51319;52.162;5.302;2022-08-11T08:00:16;36.00;35.80
43999;DHT22;51319;52.162;5.302;2022-08-11T08:03:03;36.40;35.30
43999;DHT22;51319;52.162;5.302;2022-08-11T08:05:49;36.70;35.60
43999;DHT22;51319;52.162;5.302;2022-08-11T08:08:54;37.10;35.20
43999;DHT22;51319;52.162;5.302;2022-08-11T08:11:41;37.40;33.70
43999;DHT22;51319;52.162;5.302;2022-08-11T08:14:28;37.80;33.20
43999;DHT22;51319;52.162;5.302;2022-08-11T08:17:13;38.10;32.90
43999;DHT22;51319;52.162;5.302;2022-08-11T08:19:58;38.30;32.00
43999;DHT22;51319;52.162;5.302;2022-08-11T08:22:28;38.60;31.90
43999;DHT22;51319;52.162;5.302;2022-08-11T08:25:14;38.70;31.60
43999;DHT22;51319;52.162;5.302;2022-08-11T08:27:45;39.10;30.70
43999;DHT22;51319;52.162;5.302;2022-08-11T08:30:12;39.30;30.60
43999;DHT22;51319;52.162;5.302;2022-08-11T08:32:57;39.80;31.30
43999;DHT22;51319;52.162;5.302;2022-08-11T08:35:25;40.10;30.20
43999;DHT22;51319;52.162;5.302;2022-08-11T08:37:58;40.40;30.60
43999;DHT22;51319;52.162;5.302;2022-08-11T08:40:25;40.80;29.90
43999;DHT22;51319;52.162;5.302;2022-08-11T08:42:55;41.10;29.40
43999;DHT22;51319;52.162;5.302;2022-08-11T08:45:23;41.40;29.50
43999;DHT22;51319;52.162;5.302;2022-08-11T08:48:01;41.70;29.60
43999;DHT22;51319;52.162;5.302;2022-08-11T08:50:37;42.00;29.00
43999;DHT22;51319;52.162;5.302;2022-08-11T08:53:25;42.20;28.80
43999;DHT22;51319;52.162;5.302;2022-08-11T08:55:55;42.50;29.70
43999;DHT22;51319;52.162;5.302;2022-08-11T08:58:24;42.80;28.30
43999;DHT22;51319;52.162;5.302;2022-08-11T09:00:53;43.00;28.30
43999;DHT22;51319;52.162;5.302;2022-08-11T09:03:20;43.20;28.10
43999;DHT22;51319;52.162;5.302;2022-08-11T09:06:07;43.50;27.70
43999;DHT22;51319;52.162;5.302;2022-08-11T09:08:34;43.90;27.70
43999;DHT22;51319;52.162;5.302;2022-08-11T09:11:03;44.20;27.40
43999;DHT22;51319;52.162;5.302;2022-08-11T09:13:48;44.40;27.00
43999;DHT22;51319;52.162;5.302;2022-08-11T09:16:35;44.70;27.10
43999;DHT22;51319;52.162;5.302;2022-08-11T09:19:02;45.00;26.60
43999;DHT22;51319;52.162;5.302;2022-08-11T09:21:29;45.20;26.50
43999;DHT22;51319;52.162;5.302;2022-08-11T09:24:17;45.50;26.40
43999;DHT22;51319;52.162;5.302;2022-08-11T09:27:06;45.80;26.60
43999;DHT22;51319;52.162;5.302;2022-08-11T09:29:34;46.00;25.70
43999;DHT22;51319;52.162;5.302;2022-08-11T09:32:02;46.10;25.80
43999;DHT22;51319;52.162;5.302;2022-08-11T09:34:33;46.40;25.30
43999;DHT22;51319;52.162;5.302;2022-08-11T09:37:02;46.70;25.10
43999;DHT22;51319;52.162;5.302;2022-08-11T09:40:10;47.00;25.00
43999;DHT22;51319;52.162;5.302;2022-08-11T09:42:58;47.20;25.60
43999;DHT22;51319;52.162;5.302;2022-08-11T09:45:47;47.20;25.20
43999;DHT22;51319;52.162;5.302;2022-08-11T09:48:18;47.30;25.80
43999;DHT22;51319;52.162;5.302;2022-08-11T09:50:50;47.40;25.20
43999;DHT22;51319;52.162;5.302;2022-08-11T09:53:18;47.70;24.70
43999;DHT22;51319;52.162;5.302;2022-08-11T09:56:10;48.00;24.80
43999;DHT22;51319;52.162;5.302;2022-08-11T09:58:56;48.20;24.80
43999;DHT22;51319;52.162;5.302;2022-08-11T10:01:27;48.20;24.30
43999;DHT22;51319;52.162;5.302;2022-08-11T10:04:03;48.20;24.30
43999;DHT22;51319;52.162;5.302;2022-08-11T10:06:30;48.40;24.00
43999;DHT22;51319;52.162;5.302;2022-08-11T10:09:23;48.60;23.80
43999;DHT22;51319;52.162;5.302;2022-08-11T10:11:56;48.70;24.30
43999;DHT22;51319;52.162;5.302;2022-08-11T10:14:25;48.70;23.80
43999;DHT22;51319;52.162;5.302;2022-08-11T10:17:13;48.70;24.00
43999;DHT22;51319;52.162;5.302;2022-08-11T10:19:40;48.80;23.60
43999;DHT22;51319;52.162;5.302;2022-08-11T10:22:08;49.00;24.20
43999;DHT22;51319;52.162;5.302;2022-08-11T10:24:55;48.90;22.50
43999;DHT22;51319;52.162;5.302;2022-08-11T10:27:47;48.70;22.20
43999;DHT22;51319;52.162;5.302;2022-08-11T10:30:45;48.50;23.30
43999;DHT22;51319;52.162;5.302;2022-08-11T10:33:32;48.80;22.40
43999;DHT22;51319;52.162;5.302;2022-08-11T10:36:26;48.90;22.30
43999;DHT22;51319;52.162;5.302;2022-08-11T10:38:55;48.90;22.90
43999;DHT22;51319;52.162;5.302;2022-08-11T10:41:23;49.10;22.10
43999;DHT22;51319;52.162;5.302;2022-08-11T10:44:31;49.00;22.80
43999;DHT22;51319;52.162;5.302;2022-08-11T10:47:01;49.00;22.40
43999;DHT22;51319;52.162;5.302;2022-08-11T10:49:47;48.80;21.60
43999;DHT22;51319;52.162;5.302;2022-08-11T10:52:35;48.80;22.20
43999;DHT22;51319;52.162;5.302;2022-08-11T10:55:22;48.90;22.20
43999;DHT22;51319;52.162;5.302;2022-08-11T10:58:11;49.30;21.70
43999;DHT22;51319;52.162;5.302;2022-08-11T11:00:56;49.10;22.00
43999;DHT22;51319;52.162;5.302;2022-08-11T11:03:28;49.10;22.00
43999;DHT22;51319;52.162;5.302;2022-08-11T11:06:00;49.30;22.40
43999;DHT22;51319;52.162;5.302;2022-08-11T11:08:48;49.70;22.60
43999;DHT22;51319;52.162;5.302;2022-08-11T11:11:20;50.20;22.50
43999;DHT22;51319;52.162;5.302;2022-08-11T11:13:49;50.50;21.90
43999;DHT22;51319;52.162;5.302;2022-08-11T11:16:35;50.50;21.60
43999;DHT22;51319;52.162;5.302;2022-08-11T11:19:22;50.20;21.60
43999;DHT22;51319;52.162;5.302;2022-08-11T11:21:53;50.00;21.10
43999;DHT22;51319;52.162;5.302;2022-08-11T11:24:44;50.00;21.40
43999;DHT22;51319;52.162;5.302;2022-08-11T11:30:12;50.00;21.20
43999;DHT22;51319;52.162;5.302;2022-08-11T11:33:07;50.00;21.70
43999;DHT22;51319;52.162;5.302;2022-08-11T11:36:06;50.20;21.10
43999;DHT22;51319;52.162;5.302;2022-08-11T11:38:34;50.20;21.20
43999;DHT22;51319;52.162;5.302;2022-08-11T11:41:01;50.20;21.00
43999;DHT22;51319;52.162;5.302;2022-08-11T11:43:46;50.30;20.80
43999;DHT22;51319;52.162;5.302;2022-08-11T11:46:13;50.30;21.60
43999;DHT22;51319;52.162;5.302;2022-08-11T11:48:40;50.20;21.30
43999;DHT22;51319;52.162;5.302;2022-08-11T11:51:07;49.90;21.70
43999;DHT22;51319;52.162;5.302;2022-08-11T11:53:35;50.00;22.50
43999;DHT22;51319;52.162;5.302;2022-08-11T11:56:02;50.10;21.20
43999;DHT22;51319;52.162;5.302;2022-08-11T11:58:28;50.00;21.00
43999;DHT22;51319;52.162;5.302;2022-08-11T12:01:13;50.00;21.10
43999;DHT22;51319;52.162;5.302;2022-08-11T12:03:48;50.10;20.90
43999;DHT22;51319;52.162;5.302;2022-08-11T12:06:17;49.80;20.90
43999;DHT22;51319;52.162;5.302;2022-08-11T12:08:44;49.60;21.00
43999;DHT22;51319;52.162;5.302;2022-08-11T12:11:14;49.50;21.30
43999;DHT22;51319;52.162;5.302;2022-08-11T12:14:02;49.80;21.30
43999;DHT22;51319;52.162;5.302;2022-08-11T12:16:40;49.50;20.80
43999;DHT22;51319;52.162;5.302;2022-08-11T12:19:16;49.80;21.00
43999;DHT22;51319;52.162;5.302;2022-08-11T12:21:44;49.80;21.10
43999;DHT22;51319;52.162;5.302;2022-08-11T12:24:31;49.80;21.30
43999;DHT22;51319;52.162;5.302;2022-08-11T12:27:17;49.80;21.40
43999;DHT22;51319;52.162;5.302;2022-08-11T12:29:58;49.70;21.30
43999;DHT22;51319;52.162;5.302;2022-08-11T12:32:30;49.60;20.80
43999;DHT22;51319;52.162;5.302;2022-08-11T12:34:56;49.50;21.20
43999;DHT22;51319;52.162;5.302;2022-08-11T12:37:27;49.20;22.20
43999;DHT22;51319;52.162;5.302;2022-08-11T12:39:58;49.10;21.20
43999;DHT22;51319;52.162;5.302;2022-08-11T12:43:06;48.90;21.10
43999;DHT22;51319;52.162;5.302;2022-08-11T12:46:36;47.40;21.30
43999;DHT22;51319;52.162;5.302;2022-08-11T12:49:12;46.30;21.80
43999;DHT22;51319;52.162;5.302;2022-08-11T12:52:04;45.70;22.20
43999;DHT22;51319;52.162;5.302;2022-08-11T12:57:38;46.80;22.20
43999;DHT22;51319;52.162;5.302;2022-08-11T13:00:25;47.40;21.40
43999;DHT22;51319;52.162;5.302;2022-08-11T13:03:11;47.70;21.80
43999;DHT22;51319;52.162;5.302;2022-08-11T13:06:02;47.80;21.10
43999;DHT22;51319;52.162;5.302;2022-08-11T13:08:32;47.70;21.00
43999;DHT22;51319;52.162;5.302;2022-08-11T13:10:59;47.50;21.20
43999;DHT22;51319;52.162;5.302;2022-08-11T13:13:47;47.40;21.70
43999;DHT22;51319;52.162;5.302;2022-08-11T13:16:30;47.40;21.40
43999;DHT22;51319;52.162;5.302;2022-08-11T13:18:58;47.50;21.20
43999;DHT22;51319;52.162;5.302;2022-08-11T13:21:26;47.50;21.30
43999;DHT22;51319;52.162;5.302;2022-08-11T13:23:53;47.70;21.20
43999;DHT22;51319;52.162;5.302;2022-08-11T13:26:32;47.80;22.00
43999;DHT22;51319;52.162;5.302;2022-08-11T13:29:23;47.70;21.20
43999;DHT22;51319;52.162;5.302;2022-08-11T13:31:55;47.60;21.30
43999;DHT22;51319;52.162;5.302;2022-08-11T13:34:24;47.30;21.80
43999;DHT22;51319;52.162;5.302;2022-08-11T13:36:54;47.10;21.00
43999;DHT22;51319;52.162;5.302;2022-08-11T13:39:21;47.00;21.20
43999;DHT22;51319;52.162;5.302;2022-08-11T13:41:50;46.90;21.60
43999;DHT22;51319;52.162;5.302;2022-08-11T13:44:18;46.70;21.40
43999;DHT22;51319;52.162;5.302;2022-08-11T13:47:02;46.70;22.10
43999;DHT22;51319;52.162;5.302;2022-08-11T13:49:31;46.70;21.80
43999;DHT22;51319;52.162;5.302;2022-08-11T13:51:59;46.50;21.90
43999;DHT22;51319;52.162;5.302;2022-08-11T13:54:30;46.30;21.70
43999;DHT22;51319;52.162;5.302;2022-08-11T13:57:00;46.10;21.60
43999;DHT22;51319;52.162;5.302;2022-08-11T13:59:28;45.90;21.50
43999;DHT22;51319;52.162;5.302;2022-08-11T14:02:00;45.70;21.30
43999;DHT22;51319;52.162;5.302;2022-08-11T14:04:55;45.50;21.60
43999;DHT22;51319;52.162;5.302;2022-08-11T14:07:26;45.20;21.70
43999;DHT22;51319;52.162;5.302;2022-08-11T14:09:59;44.80;22.10
43999;DHT22;51319;52.162;5.302;2022-08-11T14:12:29;44.30;21.50
43999;DHT22;51319;52.162;5.302;2022-08-11T14:15:30;43.80;21.80
43999;DHT22;51319;52.162;5.302;2022-08-11T14:18:02;43.10;22.10
43999;DHT22;51319;52.162;5.302;2022-08-11T14:20:32;42.50;22.80
43999;DHT22;51319;52.162;5.302;2022-08-11T14:23:25;42.00;22.40
43999;DHT22;51319;52.162;5.302;2022-08-11T14:25:53;41.40;23.30
43999;DHT22;51319;52.162;5.302;2022-08-11T14:28:38;40.90;24.10
43999;DHT22;51319;52.162;5.302;2022-08-11T14:31:14;40.50;24.50
43999;DHT22;51319;52.162;5.302;2022-08-11T14:33:42;40.10;24.80
43999;DHT22;51319;52.162;5.302;2022-08-11T14:36:29;39.80;24.20
43999;DHT22;51319;52.162;5.302;2022-08-11T14:38:57;39.40;24.20
43999;DHT22;51319;52.162;5.302;2022-08-11T14:41:24;39.10;24.40
43999;DHT22;51319;52.162;5.302;2022-08-11T14:44:31;38.90;24.90
43999;DHT22;51319;52.162;5.302;2022-08-11T14:47:18;38.50;24.90
43999;DHT22;51319;52.162;5.302;2022-08-11T14:49:53;38.30;25.80
43999;DHT22;51319;52.162;5.302;2022-08-11T14:52:36;38.00;25.20
43999;DHT22;51319;52.162;5.302;2022-08-11T14:55:04;37.80;25.40
43999;DHT22;51319;52.162;5.302;2022-08-11T14:57:50;37.60;26.00
43999;DHT22;51319;52.162;5.302;2022-08-11T15:00:22;37.40;25.50
43999;DHT22;51319;52.162;5.302;2022-08-11T15:02:53;37.30;26.10
43999;DHT22;51319;52.162;5.302;2022-08-11T15:05:53;37.20;26.50
43999;DHT22;51319;52.162;5.302;2022-08-11T15:08:35;37.00;27.00
43999;DHT22;51319;52.162;5.302;2022-08-11T15:11:22;36.90;26.50
43999;DHT22;51319;52.162;5.302;2022-08-11T15:14:10;36.80;26.40
43999;DHT22;51319;52.162;5.302;2022-08-11T15:16:40;36.70;26.40
43999;DHT22;51319;52.162;5.302;2022-08-11T15:19:27;36.50;26.10
43999;DHT22;51319;52.162;5.302;2022-08-11T15:21:54;36.40;26.40
43999;DHT22;51319;52.162;5.302;2022-08-11T15:24:38;36.30;26.50
43999;DHT22;51319;52.162;5.302;2022-08-11T15:27:11;36.20;26.50
43999;DHT22;51319;52.162;5.302;2022-08-11T15:30:02;36.10;26.60
43999;DHT22;51319;52.162;5.302;2022-08-11T15:33:03;36.00;27.30
43999;DHT22;51319;52.162;5.302;2022-08-11T15:35:51;35.80;26.70
43999;DHT22;51319;52.162;5.302;2022-08-11T15:38:41;35.70;27.00
43999;DHT22;51319;52.162;5.302;2022-08-11T15:41:12;35.70;27.30
43999;DHT22;51319;52.162;5.302;2022-08-11T15:44:01;35.60;27.20
43999;DHT22;51319;52.162;5.302;2022-08-11T15:46:50;35.40;27.70
43999;DHT22;51319;52.162;5.302;2022-08-11T15:49:28;35.30;27.50
43999;DHT22;51319;52.162;5.302;2022-08-11T15:52:20;35.30;27.70
43999;DHT22;51319;52.162;5.302;2022-08-11T15:54:48;35.10;28.00
43999;DHT22;51319;52.162;5.302;2022-08-11T15:57:16;35.00;28.10
43999;DHT22;51319;52.162;5.302;2022-08-11T16:00:06;34.90;28.10
43999;DHT22;51319;52.162;5.302;2022-08-11T16:02:52;34.80;28.50
43999;DHT22;51319;52.162;5.302;2022-08-11T16:05:22;34.80;28.30
43999;DHT22;51319;52.162;5.302;2022-08-11T16:08:12;34.60;28.60
43999;DHT22;51319;52.162;5.302;2022-08-11T16:10:41;34.50;28.60
43999;DHT22;51319;52.162;5.302;2022-08-11T16:13:12;34.40;28.70
43999;DHT22;51319;52.162;5.302;2022-08-11T16:15:44;34.30;28.80
43999;DHT22;51319;52.162;5.302;2022-08-11T16:19:09;34.20;29.30
43999;DHT22;51319;52.162;5.302;2022-08-11T16:21:36;34.10;28.90
43999;DHT22;51319;52.162;5.302;2022-08-11T16:24:07;34.10;29.20
43999;DHT22;51319;52.162;5.302;2022-08-11T16:26:54;34.00;29.30
43999;DHT22;51319;52.162;5.302;2022-08-11T16:29:43;33.90;29.50
43999;DHT22;51319;52.162;5.302;2022-08-11T16:36:20;33.70;29.60
43999;DHT22;51319;52.162;5.302;2022-08-11T16:39:07;33.70;29.60
43999;DHT22;51319;52.162;5.302;2022-08-11T16:41:39;33.50;29.90
43999;DHT22;51319;52.162;5.302;2022-08-11T16:44:25;33.40;30.20
43999;DHT22;51319;52.162;5.302;2022-08-11T16:47:37;33.30;30.00
43999;DHT22;51319;52.162;5.302;2022-08-11T16:50:23;33.20;30.10
43999;DHT22;51319;52.162;5.302;2022-08-11T16:52:55;33.10;30.30
43999;DHT22;51319;52.162;5.302;2022-08-11T16:55:21;33.10;30.50
43999;DHT22;51319;52.162;5.302;2022-08-11T16:58:09;33.10;30.80
43999;DHT22;51319;52.162;5.302;2022-08-11T17:00:57;33.00;30.90
43999;DHT22;51319;52.162;5.302;2022-08-11T17:03:24;32.90;30.70
43999;DHT22;51319;52.162;5.302;2022-08-11T17:06:10;32.80;31.00
43999;DHT22;51319;52.162;5.302;2022-08-11T17:08:57;32.80;31.50
43999;DHT22;51319;52.162;5.302;2022-08-11T17:11:52;32.80;31.60
43999;DHT22;51319;52.162;5.302;2022-08-11T17:14:48;32.60;31.60
43999;DHT22;51319;52.162;5.302;2022-08-11T17:17:36;32.60;31.90
43999;DHT22;51319;52.162;5.302;2022-08-11T17:20:06;32.50;32.10
43999;DHT22;51319;52.162;5.302;2022-08-11T17:22:54;32.40;32.50
43999;DHT22;51319;52.162;5.302;2022-08-11T17:25:40;32.30;32.00
43999;DHT22;51319;52.162;5.302;2022-08-11T17:28:28;32.20;32.80
43999;DHT22;51319;52.162;5.302;2022-08-11T17:30:56;32.10;33.00
43999;DHT22;51319;52.162;5.302;2022-08-11T17:33:49;32.00;32.60
43999;DHT22;51319;52.162;5.302;2022-08-11T17:36:36;32.00;32.50
43999;DHT22;51319;52.162;5.302;2022-08-11T17:39:11;31.90;32.50
43999;DHT22;51319;52.162;5.302;2022-08-11T17:41:39;31.80;32.90
43999;DHT22;51319;52.162;5.302;2022-08-11T17:44:25;31.70;32.90
43999;DHT22;51319;52.162;5.302;2022-08-11T17:47:12;31.60;32.90
43999;DHT22;51319;52.162;5.302;2022-08-11T17:49:58;31.50;33.00
43999;DHT22;51319;52.162;5.302;2022-08-11T17:52:44;31.40;33.00
43999;DHT22;51319;52.162;5.302;2022-08-11T17:55:30;31.40;32.90
43999;DHT22;51319;52.162;5.302;2022-08-11T17:58:19;31.30;33.00
43999;DHT22;51319;52.162;5.302;2022-08-11T18:01:06;31.20;33.10
43999;DHT22;51319;52.162;5.302;2022-08-11T18:03:35;31.10;33.30
43999;DHT22;51319;52.162;5.302;2022-08-11T18:06:07;31.00;33.10
43999;DHT22;51319;52.162;5.302;2022-08-11T18:08:41;31.00;33.60
43999;DHT22;51319;52.162;5.302;2022-08-11T18:11:28;30.90;33.60
43999;DHT22;51319;52.162;5.302;2022-08-11T18:14:36;30.80;33.70
43999;DHT22;51319;52.162;5.302;2022-08-11T18:17:21;30.70;33.70
43999;DHT22;51319;52.162;5.302;2022-08-11T18:20:07;30.60;33.60
43999;DHT22;51319;52.162;5.302;2022-08-11T18:22:54;30.50;33.70
43999;DHT22;51319;52.162;5.302;2022-08-11T18:25:43;30.50;33.80
43999;DHT22;51319;52.162;5.302;2022-08-11T18:28:43;30.40;34.30
43999;DHT22;51319;52.162;5.302;2022-08-11T18:31:33;30.30;34.70
43999;DHT22;51319;52.162;5.302;2022-08-11T18:34:28;30.20;34.70
43999;DHT22;51319;52.162;5.302;2022-08-11T18:37:23;30.00;34.70
43999;DHT22;51319;52.162;5.302;2022-08-11T18:40:22;29.90;34.80
43999;DHT22;51319;52.162;5.302;2022-08-11T18:43:10;29.80;35.10
43999;DHT22;51319;52.162;5.302;2022-08-11T18:46:03;29.70;35.20
43999;DHT22;51319;52.162;5.302;2022-08-11T18:48:52;29.50;35.40
43999;DHT22;51319;52.162;5.302;2022-08-11T18:51:45;29.50;35.70
43999;DHT22;51319;52.162;5.302;2022-08-11T18:54:33;29.40;35.90
43999;DHT22;51319;52.162;5.302;2022-08-11T18:57:27;29.30;36.20
43999;DHT22;51319;52.162;5.302;2022-08-11T19:00:20;29.20;36.20
43999;DHT22;51319;52.162;5.302;2022-08-11T19:10:35;28.80;37.50
43999;DHT22;51319;52.162;5.302;2022-08-11T19:13:21;28.70;38.20
43999;DHT22;51319;52.162;5.302;2022-08-11T19:16:10;28.50;39.10
43999;DHT22;51319;52.162;5.302;2022-08-11T19:18:55;28.40;39.00
43999;DHT22;51319;52.162;5.302;2022-08-11T19:21:42;28.20;38.70
43999;DHT22;51319;52.162;5.302;2022-08-11T19:24:27;28.10;39.10
43999;DHT22;51319;52.162;5.302;2022-08-11T19:27:15;28.00;39.90
43999;DHT22;51319;52.162;5.302;2022-08-11T19:30:02;27.90;39.90
43999;DHT22;51319;52.162;5.302;2022-08-11T19:32:48;27.70;40.00
43999;DHT22;51319;52.162;5.302;2022-08-11T19:35:34;27.60;40.10
43999;DHT22;51319;52.162;5.302;2022-08-11T19:38:19;27.50;41.70
43999;DHT22;51319;52.162;5.302;2022-08-11T19:41:05;27.40;43.20
43999;DHT22;51319;52.162;5.302;2022-08-11T19:44:12;27.20;44.90
43999;DHT22;51319;52.162;5.302;2022-08-11T19:46:59;27.20;43.10
43999;DHT22;51319;52.162;5.302;2022-08-11T19:49:46;27.00;42.70
43999;DHT22;51319;52.162;5.302;2022-08-11T19:52:33;26.90;43.50
43999;DHT22;51319;52.162;5.302;2022-08-11T19:55:21;26.80;43.30
43999;DHT22;51319;52.162;5.302;2022-08-11T19:58:06;26.60;43.80
43999;DHT22;51319;52.162;5.302;2022-08-11T20:00:51;26.40;44.00
43999;DHT22;51319;52.162;5.302;2022-08-11T20:03:36;26.30;45.30
43999;DHT22;51319;52.162;5.302;2022-08-11T20:06:21;26.20;44.70
43999;DHT22;51319;52.162;5.302;2022-08-11T20:09:07;26.10;45.90
43999;DHT22;51319;52.162;5.302;2022-08-11T20:12:13;26.10;47.20
43999;DHT22;51319;52.162;5.302;2022-08-11T20:15:02;26.00;47.30
43999;DHT22;51319;52.162;5.302;2022-08-11T20:17:47;25.90;47.10
43999;DHT22;51319;52.162;5.302;2022-08-11T20:20:34;25.80;47.50
43999;DHT22;51319;52.162;5.302;2022-08-11T20:23:26;25.70;47.00